sensor_id;sensor_type;location;lat;lon;timestamp;temperature;humidity
38938;DHT22;24727;51.974;20.868;2022-10-16T00:01:15;13.60;1.00
38938;DHT22;24727;51.974;20.868;2022-10-16T00:03:43;13.50;1.00
38938;DHT22;24727;51.974;20.868;2022-10-16T00:06:11;13.50;1.00
38938;DHT22;24727;51.974;20.868;2022-10-16T00:08:38;13.40;1.00
38938;DHT22;24727;51.974;20.868;2022-10-16T00:11:19;13.30;1.00
38938;DHT22;24727;51.974;20.868;2022-10-16T00:13:47;13.20;1.00
38938;DHT22;24727;51.974;20.868;2022-10-16T00:16:15;13.30;1.00
38938;DHT22;24727;51.974;20.868;2022-10-16T00:18:42;13.30;1.00
38938;DHT22;24727;51.974;20.868;2022-10-16T00:21:10;13.20;1.00
38938;DHT22;24727;51.974;20.868;2022-10-16T00:23:38;13.20;1.00
38938;DHT22;24727;51.974;20.868;2022-10-16T00:26:08;13.10;1.00
38938;DHT22;24727;51.974;20.868;2022-10-16T00:28:35;13.10;1.00
38938;DHT22;24727;51.974;20.868;2022-10-16T00:31:09;13.00;1.00
38938;DHT22;24727;51.974;20.868;2022-10-16T00:33:37;13.00;1.00
38938;DHT22;24727;51.974;20.868;2022-10-16T00:36:04;13.00;1.00
38938;DHT22;24727;51.974;20.868;2022-10-16T00:38:31;13.00;1.00
38938;DHT22;24727;51.974;20.868;2022-10-16T00:40:57;12.90;1.00
38938;DHT22;24727;51.974;20.868;2022-10-16T00:43:56;13.00;1.00
38938;DHT22;24727;51.974;20.868;2022-10-16T00:46:26;13.00;1.00
38938;DHT22;24727;51.974;20.868;2022-10-16T00:49:05;13.00;1.00
38938;DHT22;24727;51.974;20.868;2022-10-16T00:51:40;13.00;1.00
38938;DHT22;24727;51.974;20.868;2022-10-16T00:54:14;13.00;1.00
38938;DHT22;24727;51.974;20.868;2022-10-16T00:56:43;12.90;1.00
38938;DHT22;24727;51.974;20.868;2022-10-16T00:59:25;12.90;1.00
38938;DHT22;24727;51.974;20.868;2022-10-16T01:01:56;13.00;1.00
38938;DHT22;24727;51.974;20.868;2022-10-16T01:04:34;13.00;1.00
38938;DHT22;24727;51.974;20.868;2022-10-16T01:08:00;13.00;1.00
38938;DHT22;24727;51.974;20.868;2022-10-16T01:16:00;13.00;1.00
38938;DHT22;24727;51.974;20.868;2022-10-16T01:18:54;13.00;1.00
38938;DHT22;24727;51.974;20.868;2022-10-16T01:21:32;13.10;1.00
38938;DHT22;24727;51.974;20.868;2022-10-16T01:24:21;13.10;1.00
38938;DHT22;24727;51.974;20.868;2022-10-16T01:29:52;13.10;1.00
38938;DHT22;24727;51.974;20.868;2022-10-16T01:32:39;13.10;1.00
38938;DHT22;24727;51.974;20.868;2022-10-16T01:38:20;13.10;1.00
38938;DHT22;24727;51.974;20.868;2022-10-16T01:40:51;13.10;1.00
38938;DHT22;24727;51.974;20.868;2022-10-16T01:43:35;13.10;1.00
38938;DHT22;24727;51.974;20.868;2022-10-16T01:46:02;13.10;1.00
38938;DHT22;24727;51.974;20.868;2022-10-16T01:48:29;13.20;1.00
38938;DHT22;24727;51.974;20.868;2022-10-16T01:51:17;13.20;1.00
38938;DHT22;24727;51.974;20.868;2022-10-16T01:53:48;13.20;1.00
38938;DHT22;24727;51.974;20.868;2022-10-16T01:56:17;13.20;1.00
38938;DHT22;24727;51.974;20.868;2022-10-16T02:01:48;13.10;1.00
38938;DHT22;24727;51.974;20.868;2022-10-16T02:04:41;13.10;1.00
38938;DHT22;24727;51.974;20.868;2022-10-16T02:07:08;13.10;1.00
38938;DHT22;24727;51.974;20.868;2022-10-16T02:09:35;13.10;1.00
38938;DHT22;24727;51.974;20.868;2022-10-16T02:12:08;13.10;1.00
38938;DHT22;24727;51.974;20.868;2022-10-16T02:14:38;13.10;1.00
38938;DHT22;24727;51.974;20.868;2022-10-16T02:17:16;13.00;1.00
38938;DHT22;24727;51.974;20.868;2022-10-16T02:19:44;13.00;1.00
38938;DHT22;24727;51.974;20.868;2022-10-16T02:22:32;13.00;1.00
38938;DHT22;24727;51.974;20.868;2022-10-16T02:25:13;13.00;1.00
38938;DHT22;24727;51.974;20.868;2022-10-16T02:30:47;13.00;1.00
38938;DHT22;24727;51.974;20.868;2022-10-16T02:33:16;13.00;1.00
38938;DHT22;24727;51.974;20.868;2022-10-16T02:35:45;12.90;1.00
38938;DHT22;24727;51.974;20.868;2022-10-16T02:38:14;13.00;1.00
38938;DHT22;24727;51.974;20.868;2022-10-16T02:40:40;13.00;1.00
38938;DHT22;24727;51.974;20.868;2022-10-16T02:43:06;12.90;1.00
38938;DHT22;24727;51.974;20.868;2022-10-16T02:45:34;13.00;1.00
38938;DHT22;24727;51.974;20.868;2022-10-16T02:48:00;13.00;1.00
38938;DHT22;24727;51.974;20.868;2022-10-16T02:50:28;12.90;1.00
38938;DHT22;24727;51.974;20.868;2022-10-16T02:52:54;13.00;1.00
38938;DHT22;24727;51.974;20.868;2022-10-16T02:55:20;12.90;1.00
38938;DHT22;24727;51.974;20.868;2022-10-16T02:57:46;13.00;1.00
38938;DHT22;24727;51.974;20.868;2022-10-16T03:00:15;13.00;1.00
38938;DHT22;24727;51.974;20.868;2022-10-16T03:02:42;13.00;1.00
38938;DHT22;24727;51.974;20.868;2022-10-16T03:05:09;13.00;1.00
38938;DHT22;24727;51.974;20.868;2022-10-16T03:07:37;13.00;1.00
38938;DHT22;24727;51.974;20.868;2022-10-16T03:10:03;13.00;1.00
38938;DHT22;24727;51.974;20.868;2022-10-16T03:12:30;13.00;1.00
38938;DHT22;24727;51.974;20.868;2022-10-16T03:14:56;13.00;1.00
38938;DHT22;24727;51.974;20.868;2022-10-16T03:17:23;12.90;1.00
38938;DHT22;24727;51.974;20.868;2022-10-16T03:19:50;12.90;1.00
38938;DHT22;24727;51.974;20.868;2022-10-16T03:22:16;12.90;1.00
38938;DHT22;24727;51.974;20.868;2022-10-16T03:24:42;12.90;1.00
38938;DHT22;24727;51.974;20.868;2022-10-16T03:27:09;12.90;1.00
38938;DHT22;24727;51.974;20.868;2022-10-16T03:29:35;12.90;1.00
38938;DHT22;24727;51.974;20.868;2022-10-16T03:32:00;12.90;1.00
38938;DHT22;24727;51.974;20.868;2022-10-16T03:34:27;12.90;1.00
38938;DHT22;24727;51.974;20.868;2022-10-16T03:36:54;12.90;1.00
38938;DHT22;24727;51.974;20.868;2022-10-16T03:39:20;12.90;1.00
38938;DHT22;24727;51.974;20.868;2022-10-16T03:41:46;12.90;1.00
38938;DHT22;24727;51.974;20.868;2022-10-16T03:44:13;12.90;1.00
38938;DHT22;24727;51.974;20.868;2022-10-16T03:46:39;12.80;1.00
38938;DHT22;24727;51.974;20.868;2022-10-16T03:49:05;12.80;1.00
38938;DHT22;24727;51.974;20.868;2022-10-16T03:51:32;12.80;1.00
38938;DHT22;24727;51.974;20.868;2022-10-16T03:53:57;12.80;1.00
38938;DHT22;24727;51.974;20.868;2022-10-16T03:56:24;12.80;1.00
38938;DHT22;24727;51.974;20.868;2022-10-16T03:58:50;12.70;1.00
38938;DHT22;24727;51.974;20.868;2022-10-16T04:01:17;12.70;1.00
38938;DHT22;24727;51.974;20.868;2022-10-16T04:03:43;12.70;1.00
38938;DHT22;24727;51.974;20.868;2022-10-16T04:06:09;12.60;1.00
38938;DHT22;24727;51.974;20.868;2022-10-16T04:08:36;12.60;1.00
38938;DHT22;24727;51.974;20.868;2022-10-16T04:11:03;12.50;1.00
38938;DHT22;24727;51.974;20.868;2022-10-16T04:13:29;12.40;1.00
38938;DHT22;24727;51.974;20.868;2022-10-16T04:15:56;12.30;1.00
38938;DHT22;24727;51.974;20.868;2022-10-16T04:18:22;12.20;1.00
38938;DHT22;24727;51.974;20.868;2022-10-16T04:20:49;12.10;1.00
38938;DHT22;24727;51.974;20.868;2022-10-16T04:23:16;12.10;1.00
38938;DHT22;24727;51.974;20.868;2022-10-16T04:25:42;12.00;1.00
38938;DHT22;24727;51.974;20.868;2022-10-16T04:28:07;11.90;1.00
38938;DHT22;24727;51.974;20.868;2022-10-16T04:30:33;11.80;1.00
38938;DHT22;24727;51.974;20.868;2022-10-16T04:33:00;11.70;1.00
38938;DHT22;24727;51.974;20.868;2022-10-16T04:35:26;11.70;1.00
38938;DHT22;24727;51.974;20.868;2022-10-16T04:37:52;11.70;1.00
38938;DHT22;24727;51.974;20.868;2022-10-16T04:40:18;11.60;1.00
38938;DHT22;24727;51.974;20.868;2022-10-16T04:42:44;11.60;1.00
38938;DHT22;24727;51.974;20.868;2022-10-16T04:45:10;11.60;1.00
38938;DHT22;24727;51.974;20.868;2022-10-16T04:47:36;11.50;1.00
38938;DHT22;24727;51.974;20.868;2022-10-16T04:50:05;11.40;1.00
38938;DHT22;24727;51.974;20.868;2022-10-16T04:52:31;11.40;1.00
38938;DHT22;24727;51.974;20.868;2022-10-16T04:54:58;11.30;1.00
38938;DHT22;24727;51.974;20.868;2022-10-16T04:57:28;11.30;1.00
38938;DHT22;24727;51.974;20.868;2022-10-16T04:59:54;11.30;1.00
38938;DHT22;24727;51.974;20.868;2022-10-16T05:02:21;11.30;1.00
38938;DHT22;24727;51.974;20.868;2022-10-16T05:04:47;11.20;1.00
38938;DHT22;24727;51.974;20.868;2022-10-16T05:07:13;11.20;1.00
38938;DHT22;24727;51.974;20.868;2022-10-16T05:09:39;11.10;1.00
38938;DHT22;24727;51.974;20.868;2022-10-16T05:12:05;11.10;1.00
38938;DHT22;24727;51.974;20.868;2022-10-16T05:14:31;11.00;1.00
38938;DHT22;24727;51.974;20.868;2022-10-16T05:16:59;11.00;1.00
38938;DHT22;24727;51.974;20.868;2022-10-16T05:19:33;10.90;1.00
38938;DHT22;24727;51.974;20.868;2022-10-16T05:21:59;10.90;1.00
38938;DHT22;24727;51.974;20.868;2022-10-16T05:24:26;10.90;1.00
38938;DHT22;24727;51.974;20.868;2022-10-16T05:26:52;10.90;1.00
38938;DHT22;24727;51.974;20.868;2022-10-16T05:29:18;10.90;1.00
38938;DHT22;24727;51.974;20.868;2022-10-16T05:31:44;10.90;1.00
38938;DHT22;24727;51.974;20.868;2022-10-16T05:34:10;10.90;1.00
38938;DHT22;24727;51.974;20.868;2022-10-16T05:36:36;11.00;1.00
38938;DHT22;24727;51.974;20.868;2022-10-16T05:39:03;11.00;1.00
38938;DHT22;24727;51.974;20.868;2022-10-16T05:41:29;11.00;1.00
38938;DHT22;24727;51.974;20.868;2022-10-16T05:43:55;11.10;1.00
38938;DHT22;24727;51.974;20.868;2022-10-16T05:46:21;11.10;1.00
38938;DHT22;24727;51.974;20.868;2022-10-16T05:48:48;11.00;1.00
38938;DHT22;24727;51.974;20.868;2022-10-16T05:51:14;11.00;1.00
38938;DHT22;24727;51.974;20.868;2022-10-16T05:53:41;11.00;1.00
38938;DHT22;24727;51.974;20.868;2022-10-16T05:56:10;11.10;1.00
38938;DHT22;24727;51.974;20.868;2022-10-16T05:58:37;11.10;1.00
38938;DHT22;24727;51.974;20.868;2022-10-16T06:01:15;11.00;1.00
38938;DHT22;24727;51.974;20.868;2022-10-16T06:03:42;11.10;1.00
38938;DHT22;24727;51.974;20.868;2022-10-16T06:06:13;11.10;1.00
38938;DHT22;24727;51.974;20.868;2022-10-16T06:08:40;11.10;1.00
38938;DHT22;24727;51.974;20.868;2022-10-16T06:11:08;11.20;1.00
38938;DHT22;24727;51.974;20.868;2022-10-16T06:13:36;11.30;1.00
38938;DHT22;24727;51.974;20.868;2022-10-16T06:16:04;11.40;1.00
38938;DHT22;24727;51.974;20.868;2022-10-16T06:18:30;11.50;1.00
38938;DHT22;24727;51.974;20.868;2022-10-16T06:20:57;11.70;1.00
38938;DHT22;24727;51.974;20.868;2022-10-16T06:23:24;11.80;1.00
38938;DHT22;24727;51.974;20.868;2022-10-16T06:25:51;11.90;1.00
38938;DHT22;24727;51.974;20.868;2022-10-16T06:28:18;12.00;1.00
38938;DHT22;24727;51.974;20.868;2022-10-16T06:30:44;12.10;1.00
38938;DHT22;24727;51.974;20.868;2022-10-16T06:33:13;12.40;1.00
38938;DHT22;24727;51.974;20.868;2022-10-16T06:35:39;12.60;1.00
38938;DHT22;24727;51.974;20.868;2022-10-16T06:38:06;12.80;1.00
38938;DHT22;24727;51.974;20.868;2022-10-16T06:40:32;12.90;1.00
38938;DHT22;24727;51.974;20.868;2022-10-16T06:42:58;13.00;1.00
38938;DHT22;24727;51.974;20.868;2022-10-16T06:45:24;13.20;1.00
38938;DHT22;24727;51.974;20.868;2022-10-16T06:47:50;13.30;1.00
38938;DHT22;24727;51.974;20.868;2022-10-16T06:50:16;13.50;1.00
38938;DHT22;24727;51.974;20.868;2022-10-16T06:52:42;13.60;1.00
38938;DHT22;24727;51.974;20.868;2022-10-16T06:55:08;13.80;1.00
38938;DHT22;24727;51.974;20.868;2022-10-16T06:57:35;13.80;1.00
38938;DHT22;24727;51.974;20.868;2022-10-16T07:00:01;13.90;1.00
38938;DHT22;24727;51.974;20.868;2022-10-16T07:02:27;13.90;1.00
38938;DHT22;24727;51.974;20.868;2022-10-16T07:04:53;13.90;1.00
38938;DHT22;24727;51.974;20.868;2022-10-16T07:07:20;13.90;1.00
38938;DHT22;24727;51.974;20.868;2022-10-16T07:09:46;13.90;1.00
38938;DHT22;24727;51.974;20.868;2022-10-16T07:12:13;13.80;1.00
38938;DHT22;24727;51.974;20.868;2022-10-16T07:14:39;13.80;1.00
38938;DHT22;24727;51.974;20.868;2022-10-16T07:17:06;13.80;1.00
38938;DHT22;24727;51.974;20.868;2022-10-16T07:19:31;13.80;1.00
38938;DHT22;24727;51.974;20.868;2022-10-16T07:21:57;13.80;1.00
38938;DHT22;24727;51.974;20.868;2022-10-16T07:24:23;13.90;1.00
38938;DHT22;24727;51.974;20.868;2022-10-16T07:26:50;14.00;1.00
38938;DHT22;24727;51.974;20.868;2022-10-16T07:29:19;14.00;1.00
38938;DHT22;24727;51.974;20.868;2022-10-16T07:31:46;14.10;1.00
38938;DHT22;24727;51.974;20.868;2022-10-16T07:34:14;14.20;1.00
38938;DHT22;24727;51.974;20.868;2022-10-16T07:36:41;14.20;1.00
38938;DHT22;24727;51.974;20.868;2022-10-16T07:39:09;14.30;1.00
38938;DHT22;24727;51.974;20.868;2022-10-16T07:41:35;14.30;1.00
38938;DHT22;24727;51.974;20.868;2022-10-16T07:44:03;14.40;1.00
38938;DHT22;24727;51.974;20.868;2022-10-16T07:46:30;14.50;1.00
38938;DHT22;24727;51.974;20.868;2022-10-16T07:48:56;14.50;1.00
38938;DHT22;24727;51.974;20.868;2022-10-16T07:51:24;14.60;1.00
38938;DHT22;24727;51.974;20.868;2022-10-16T07:53:51;14.60;1.00
38938;DHT22;24727;51.974;20.868;2022-10-16T07:56:17;14.70;1.00
38938;DHT22;24727;51.974;20.868;2022-10-16T07:58:44;14.90;1.00
38938;DHT22;24727;51.974;20.868;2022-10-16T08:01:13;14.90;1.00
38938;DHT22;24727;51.974;20.868;2022-10-16T08:03:42;15.00;1.00
38938;DHT22;24727;51.974;20.868;2022-10-16T08:06:08;15.10;1.00
38938;DHT22;24727;51.974;20.868;2022-10-16T08:08:34;15.20;1.00
38938;DHT22;24727;51.974;20.868;2022-10-16T08:11:00;15.20;1.00
38938;DHT22;24727;51.974;20.868;2022-10-16T08:13:31;15.40;1.00
38938;DHT22;24727;51.974;20.868;2022-10-16T08:15:58;15.40;1.00
38938;DHT22;24727;51.974;20.868;2022-10-16T08:18:24;15.50;1.00
38938;DHT22;24727;51.974;20.868;2022-10-16T08:20:59;15.50;1.00
38938;DHT22;24727;51.974;20.868;2022-10-16T08:23:26;15.60;1.00
38938;DHT22;24727;51.974;20.868;2022-10-16T08:25:53;15.60;1.00
38938;DHT22;24727;51.974;20.868;2022-10-16T08:28:20;15.70;1.00
38938;DHT22;24727;51.974;20.868;2022-10-16T08:30:46;15.80;1.00
38938;DHT22;24727;51.974;20.868;2022-10-16T08:33:12;15.90;1.00
38938;DHT22;24727;51.974;20.868;2022-10-16T08:35:38;15.90;1.00
38938;DHT22;24727;51.974;20.868;2022-10-16T08:38:06;16.00;1.00
38938;DHT22;24727;51.974;20.868;2022-10-16T08:40:34;16.10;1.00
38938;DHT22;24727;51.974;20.868;2022-10-16T08:43:30;16.10;1.00
38938;DHT22;24727;51.974;20.868;2022-10-16T08:46:16;16.30;1.00
38938;DHT22;24727;51.974;20.868;2022-10-16T08:48:50;16.50;1.00
38938;DHT22;24727;51.974;20.868;2022-10-16T08:51:37;16.70;1.00
38938;DHT22;24727;51.974;20.868;2022-10-16T08:54:45;16.70;1.00
38938;DHT22;24727;51.974;20.868;2022-10-16T08:57:25;16.70;1.00
38938;DHT22;24727;51.974;20.868;2022-10-16T09:00:00;16.70;1.00
38938;DHT22;24727;51.974;20.868;2022-10-16T09:05:17;16.90;1.00
38938;DHT22;24727;51.974;20.868;2022-10-16T09:13:26;16.70;1.00
38938;DHT22;24727;51.974;20.868;2022-10-16T09:16:19;16.50;1.00
38938;DHT22;24727;51.974;20.868;2022-10-16T09:19:01;16.50;1.00
38938;DHT22;24727;51.974;20.868;2022-10-16T09:21:31;16.60;1.00
38938;DHT22;24727;51.974;20.868;2022-10-16T09:26:39;16.90;1.00
38938;DHT22;24727;51.974;20.868;2022-10-16T09:29:05;17.10;1.00
38938;DHT22;24727;51.974;20.868;2022-10-16T09:31:36;17.20;1.00
38938;DHT22;24727;51.974;20.868;2022-10-16T09:34:03;17.30;1.00
38938;DHT22;24727;51.974;20.868;2022-10-16T09:36:43;17.40;1.00
38938;DHT22;24727;51.974;20.868;2022-10-16T09:39:11;17.40;1.00
38938;DHT22;24727;51.974;20.868;2022-10-16T09:41:44;17.40;1.00
38938;DHT22;24727;51.974;20.868;2022-10-16T09:44:29;17.50;1.00
38938;DHT22;24727;51.974;20.868;2022-10-16T09:47:23;17.40;1.00
38938;DHT22;24727;51.974;20.868;2022-10-16T09:49:54;17.40;1.00
38938;DHT22;24727;51.974;20.868;2022-10-16T09:52:22;17.30;1.00
38938;DHT22;24727;51.974;20.868;2022-10-16T09:55:09;17.40;1.00
38938;DHT22;24727;51.974;20.868;2022-10-16T09:57:52;17.60;1.00
38938;DHT22;24727;51.974;20.868;2022-10-16T10:00:20;17.70;1.00
38938;DHT22;24727;51.974;20.868;2022-10-16T10:02:48;17.80;1.00
38938;DHT22;24727;51.974;20.868;2022-10-16T10:05:23;18.00;1.00
38938;DHT22;24727;51.974;20.868;2022-10-16T10:08:01;18.00;1.00
38938;DHT22;24727;51.974;20.868;2022-10-16T10:10:33;18.00;1.00
38938;DHT22;24727;51.974;20.868;2022-10-16T10:13:00;18.00;1.00
38938;DHT22;24727;51.974;20.868;2022-10-16T10:15:29;18.00;1.00
38938;DHT22;24727;51.974;20.868;2022-10-16T10:17:58;18.10;1.00
38938;DHT22;24727;51.974;20.868;2022-10-16T10:20:30;18.10;1.00
38938;DHT22;24727;51.974;20.868;2022-10-16T10:23:01;18.20;1.00
38938;DHT22;24727;51.974;20.868;2022-10-16T10:30:57;18.30;1.00
38938;DHT22;24727;51.974;20.868;2022-10-16T10:36:14;18.30;1.00
38938;DHT22;24727;51.974;20.868;2022-10-16T10:38:50;18.20;1.00
38938;DHT22;24727;51.974;20.868;2022-10-16T10:44:42;18.30;1.00
38938;DHT22;24727;51.974;20.868;2022-10-16T10:47:04;18.30;1.00
38938;DHT22;24727;51.974;20.868;2022-10-16T10:52:43;18.30;1.00
38938;DHT22;24727;51.974;20.868;2022-10-16T10:56:18;18.20;1.00
38938;DHT22;24727;51.974;20.868;2022-10-16T11:01:01;18.30;1.00
38938;DHT22;24727;51.974;20.868;2022-10-16T11:06:12;18.40;1.00
38938;DHT22;24727;51.974;20.868;2022-10-16T11:11:16;18.60;1.00
38938;DHT22;24727;51.974;20.868;2022-10-16T11:16:34;18.60;1.00
38938;DHT22;24727;51.974;20.868;2022-10-16T11:19:20;18.60;1.00
38938;DHT22;24727;51.974;20.868;2022-10-16T11:30:25;18.70;1.00
38938;DHT22;24727;51.974;20.868;2022-10-16T11:39:10;18.50;1.00
38938;DHT22;24727;51.974;20.868;2022-10-16T11:49:39;19.00;1.00
38938;DHT22;24727;51.974;20.868;2022-10-16T11:52:36;19.10;1.00
38938;DHT22;24727;51.974;20.868;2022-10-16T11:55:23;19.20;1.00
38938;DHT22;24727;51.974;20.868;2022-10-16T11:58:25;19.10;1.00
38938;DHT22;24727;51.974;20.868;2022-10-16T12:01:00;19.10;1.00
38938;DHT22;24727;51.974;20.868;2022-10-16T12:03:38;19.10;1.00
38938;DHT22;24727;51.974;20.868;2022-10-16T12:08:54;19.10;1.00
38938;DHT22;24727;51.974;20.868;2022-10-16T12:16:36;19.10;1.00
38938;DHT22;24727;51.974;20.868;2022-10-16T12:19:15;19.10;1.00
38938;DHT22;24727;51.974;20.868;2022-10-16T12:21:43;18.90;1.00
38938;DHT22;24727;51.974;20.868;2022-10-16T12:24:32;18.90;1.00
38938;DHT22;24727;51.974;20.868;2022-10-16T12:27:00;18.90;1.00
38938;DHT22;24727;51.974;20.868;2022-10-16T12:29:33;18.90;1.00
38938;DHT22;24727;51.974;20.868;2022-10-16T12:32:00;18.90;1.00
38938;DHT22;24727;51.974;20.868;2022-10-16T12:34:41;18.90;1.00
38938;DHT22;24727;51.974;20.868;2022-10-16T12:37:31;18.90;1.00
38938;DHT22;24727;51.974;20.868;2022-10-16T12:39:59;19.00;1.00
38938;DHT22;24727;51.974;20.868;2022-10-16T12:42:36;19.10;1.00
38938;DHT22;24727;51.974;20.868;2022-10-16T12:45:24;19.10;1.00
38938;DHT22;24727;51.974;20.868;2022-10-16T12:47:52;19.30;1.00
38938;DHT22;24727;51.974;20.868;2022-10-16T12:50:35;19.30;1.00
38938;DHT22;24727;51.974;20.868;2022-10-16T12:53:15;19.30;1.00
38938;DHT22;24727;51.974;20.868;2022-10-16T12:56:36;19.30;1.00
38938;DHT22;24727;51.974;20.868;2022-10-16T13:05:02;19.20;1.00
38938;DHT22;24727;51.974;20.868;2022-10-16T13:07:46;19.20;1.00
38938;DHT22;24727;51.974;20.868;2022-10-16T13:10:40;19.10;1.00
38938;DHT22;24727;51.974;20.868;2022-10-16T13:13:13;19.30;1.00
38938;DHT22;24727;51.974;20.868;2022-10-16T13:19:08;19.40;1.00
38938;DHT22;24727;51.974;20.868;2022-10-16T13:24:41;19.40;1.00
38938;DHT22;24727;51.974;20.868;2022-10-16T13:27:29;19.40;1.00
38938;DHT22;24727;51.974;20.868;2022-10-16T13:30:13;19.40;1.00
38938;DHT22;24727;51.974;20.868;2022-10-16T13:32:45;19.40;1.00
38938;DHT22;24727;51.974;20.868;2022-10-16T13:35:25;19.50;1.00
38938;DHT22;24727;51.974;20.868;2022-10-16T13:38:02;19.30;1.00
38938;DHT22;24727;51.974;20.868;2022-10-16T13:40:30;19.30;1.00
38938;DHT22;24727;51.974;20.868;2022-10-16T13:42:59;19.30;1.00
38938;DHT22;24727;51.974;20.868;2022-10-16T13:45:26;19.20;1.00
38938;DHT22;24727;51.974;20.868;2022-10-16T13:48:06;19.10;1.00
38938;DHT22;24727;51.974;20.868;2022-10-16T13:50:35;19.10;1.00
38938;DHT22;24727;51.974;20.868;2022-10-16T13:53:13;19.10;1.00
38938;DHT22;24727;51.974;20.868;2022-10-16T13:55:40;19.00;1.00
38938;DHT22;24727;51.974;20.868;2022-10-16T13:58:12;19.00;1.00
38938;DHT22;24727;51.974;20.868;2022-10-16T14:00:39;18.90;1.00
38938;DHT22;24727;51.974;20.868;2022-10-16T14:03:15;18.90;1.00
38938;DHT22;24727;51.974;20.868;2022-10-16T14:05:51;18.90;1.00
38938;DHT22;24727;51.974;20.868;2022-10-16T14:08:18;18.90;1.00
38938;DHT22;24727;51.974;20.868;2022-10-16T14:10:50;18.90;1.00
38938;DHT22;24727;51.974;20.868;2022-10-16T14:13:30;18.90;1.00
38938;DHT22;24727;51.974;20.868;2022-10-16T14:15:57;18.90;1.00
38938;DHT22;24727;51.974;20.868;2022-10-16T14:18:27;19.00;1.00
38938;DHT22;24727;51.974;20.868;2022-10-16T14:20:53;19.00;1.00
38938;DHT22;24727;51.974;20.868;2022-10-16T14:25:54;18.90;1.00
38938;DHT22;24727;51.974;20.868;2022-10-16T14:28:22;18.90;1.00
38938;DHT22;24727;51.974;20.868;2022-10-16T14:30:54;18.90;1.00
38938;DHT22;24727;51.974;20.868;2022-10-16T14:36:14;18.90;1.00
38938;DHT22;24727;51.974;20.868;2022-10-16T14:38:48;19.00;1.00
38938;DHT22;24727;51.974;20.868;2022-10-16T14:41:15;19.00;1.00
38938;DHT22;24727;51.974;20.868;2022-10-16T14:43:42;19.00;1.00
38938;DHT22;24727;51.974;20.868;2022-10-16T14:46:18;19.00;1.00
38938;DHT22;24727;51.974;20.868;2022-10-16T14:48:47;19.00;1.00
38938;DHT22;24727;51.974;20.868;2022-10-16T14:51:18;18.90;1.00
38938;DHT22;24727;51.974;20.868;2022-10-16T14:53:46;19.00;1.00
38938;DHT22;24727;51.974;20.868;2022-10-16T14:56:23;19.10;1.00
38938;DHT22;24727;51.974;20.868;2022-10-16T14:58:51;19.00;1.00
38938;DHT22;24727;51.974;20.868;2022-10-16T15:01:18;19.00;1.00
38938;DHT22;24727;51.974;20.868;2022-10-16T15:03:45;19.00;1.00
38938;DHT22;24727;51.974;20.868;2022-10-16T15:06:12;18.90;1.00
38938;DHT22;24727;51.974;20.868;2022-10-16T15:08:39;18.90;1.00
38938;DHT22;24727;51.974;20.868;2022-10-16T15:11:17;18.90;1.00
38938;DHT22;24727;51.974;20.868;2022-10-16T15:13:44;18.80;1.00
38938;DHT22;24727;51.974;20.868;2022-10-16T15:16:15;18.80;1.00
38938;DHT22;24727;51.974;20.868;2022-10-16T15:18:42;18.80;1.00
38938;DHT22;24727;51.974;20.868;2022-10-16T15:21:31;18.70;1.00
38938;DHT22;24727;51.974;20.868;2022-10-16T15:23:59;18.70;1.00
38938;DHT22;24727;51.974;20.868;2022-10-16T15:26:27;18.60;1.00
38938;DHT22;24727;51.974;20.868;2022-10-16T15:28:59;18.50;1.00
38938;DHT22;24727;51.974;20.868;2022-10-16T15:31:25;18.50;1.00
38938;DHT22;24727;51.974;20.868;2022-10-16T15:33:52;18.40;1.00
38938;DHT22;24727;51.974;20.868;2022-10-16T15:36:32;18.40;1.00
38938;DHT22;24727;51.974;20.868;2022-10-16T15:39:12;18.40;1.00
38938;DHT22;24727;51.974;20.868;2022-10-16T15:41:38;18.40;1.00
38938;DHT22;24727;51.974;20.868;2022-10-16T15:44:04;18.40;1.00
38938;DHT22;24727;51.974;20.868;2022-10-16T15:46:30;18.30;1.00
38938;DHT22;24727;51.974;20.868;2022-10-16T15:48:58;18.30;1.00
38938;DHT22;24727;51.974;20.868;2022-10-16T15:51:25;18.30;1.00
38938;DHT22;24727;51.974;20.868;2022-10-16T15:53:56;18.20;1.00
38938;DHT22;24727;51.974;20.868;2022-10-16T15:56:22;18.10;1.00
38938;DHT22;24727;51.974;20.868;2022-10-16T15:58:53;18.10;1.00
38938;DHT22;24727;51.974;20.868;2022-10-16T16:01:20;18.00;1.00
38938;DHT22;24727;51.974;20.868;2022-10-16T16:03:55;18.00;1.00
38938;DHT22;24727;51.974;20.868;2022-10-16T16:06:23;17.80;1.00
38938;DHT22;24727;51.974;20.868;2022-10-16T16:08:50;17.80;1.00
38938;DHT22;24727;51.974;20.868;2022-10-16T16:11:18;17.70;1.00
38938;DHT22;24727;51.974;20.868;2022-10-16T16:13:44;17.60;1.00
38938;DHT22;24727;51.974;20.868;2022-10-16T16:16:13;17.60;1.00
38938;DHT22;24727;51.974;20.868;2022-10-16T16:18:42;17.60;1.00
38938;DHT22;24727;51.974;20.868;2022-10-16T16:21:13;17.60;1.00
38938;DHT22;24727;51.974;20.868;2022-10-16T16:23:39;17.50;1.00
38938;DHT22;24727;51.974;20.868;2022-10-16T16:26:24;17.40;1.00
38938;DHT22;24727;51.974;20.868;2022-10-16T16:28:52;17.50;1.00
38938;DHT22;24727;51.974;20.868;2022-10-16T16:31:19;17.50;1.00
38938;DHT22;24727;51.974;20.868;2022-10-16T16:33:46;17.40;1.00
38938;DHT22;24727;51.974;20.868;2022-10-16T16:36:12;17.40;1.00
38938;DHT22;24727;51.974;20.868;2022-10-16T16:38:38;17.30;1.00
38938;DHT22;24727;51.974;20.868;2022-10-16T16:41:33;17.30;1.00
38938;DHT22;24727;51.974;20.868;2022-10-16T16:44:07;17.30;1.00
38938;DHT22;24727;51.974;20.868;2022-10-16T16:46:42;17.20;1.00
38938;DHT22;24727;51.974;20.868;2022-10-16T16:49:11;17.10;1.00
38938;DHT22;24727;51.974;20.868;2022-10-16T16:51:38;17.10;1.00
38938;DHT22;24727;51.974;20.868;2022-10-16T16:54:06;17.10;1.00
38938;DHT22;24727;51.974;20.868;2022-10-16T16:56:33;17.10;1.00
38938;DHT22;24727;51.974;20.868;2022-10-16T16:58:59;17.00;1.00
38938;DHT22;24727;51.974;20.868;2022-10-16T17:01:26;17.00;1.00
38938;DHT22;24727;51.974;20.868;2022-10-16T17:03:55;17.00;1.00
38938;DHT22;24727;51.974;20.868;2022-10-16T17:06:25;17.00;1.00
38938;DHT22;24727;51.974;20.868;2022-10-16T17:08:52;16.90;1.00
38938;DHT22;24727;51.974;20.868;2022-10-16T17:11:20;16.90;1.00
38938;DHT22;24727;51.974;20.868;2022-10-16T17:13:48;16.80;1.00
38938;DHT22;24727;51.974;20.868;2022-10-16T17:16:14;16.70;1.00
38938;DHT22;24727;51.974;20.868;2022-10-16T17:18:41;16.60;1.00
38938;DHT22;24727;51.974;20.868;2022-10-16T17:21:09;16.60;1.00
38938;DHT22;24727;51.974;20.868;2022-10-16T17:23:36;16.40;1.00
38938;DHT22;24727;51.974;20.868;2022-10-16T17:26:08;16.30;1.00
38938;DHT22;24727;51.974;20.868;2022-10-16T17:28:34;16.30;1.00
38938;DHT22;24727;51.974;20.868;2022-10-16T17:31:20;16.30;1.00
38938;DHT22;24727;51.974;20.868;2022-10-16T17:33:47;16.30;1.00
38938;DHT22;24727;51.974;20.868;2022-10-16T17:36:13;16.10;1.00